Time;durP1;ratioP1;P1;durP2;ratioP2;P2;SDS_P1;SDS_P2;PMS_P1;PMS_P2;Temp;Humidity;BMP_temperature;BMP_pressure;BME280_temperature;BME280_humidity;BME280_pressure;Samples;Min_cycle;Max_cycle;Signal;HPM_P1;HPM_P2
2023/01/22 00:01:11;;;;;;;20.90;10.00;;;0.40;99.90;;;;;;5115935;27;20149;-88
2023/01/22 00:03:38;;;;;;;16.70;9.05;;;0.50;99.90;;;;;;5112764;27;20031;-89
2023/01/22 00:06:04;;;;;;;18.48;9.90;;;0.60;99.90;;;;;;5095731;28;20047;-88
2023/01/22 00:08:30;;;;;;;20.10;8.98;;;0.60;99.90;;;;;;5113479;28;20463;-89
2023/01/22 00:10:56;;;;;;;18.15;9.57;;;0.60;99.90;;;;;;5126422;27;20580;-89
2023/01/22 00:13:23;;;;;;;15.55;8.07;;;0.60;99.90;;;;;;5116092;27;20072;-88
2023/01/22 00:15:49;;;;;;;20.30;9.80;;;0.60;99.90;;;;;;5127956;27;20042;-88
2023/01/22 00:18:17;;;;;;;18.02;9.68;;;0.70;99.90;;;;;;5116516;27;20031;-89
2023/01/22 00:20:51;;;;;;;18.13;9.35;;;0.70;99.90;;;;;;5108687;27;20035;-89
2023/01/22 00:23:17;;;;;;;17.58;9.23;;;0.60;99.90;;;;;;5124619;27;20031;-89
2023/01/22 00:25:43;;;;;;;20.83;10.00;;;0.70;99.90;;;;;;5122140;27;20036;-89
2023/01/22 00:28:10;;;;;;;20.27;10.10;;;0.60;99.90;;;;;;5122997;27;20036;-88
2023/01/22 00:30:35;;;;;;;20.20;10.02;;;0.60;99.90;;;;;;5121480;27;20046;-89
2023/01/22 00:33:01;;;;;;;19.90;10.52;;;0.60;99.90;;;;;;5122570;27;20126;-89
2023/01/22 00:35:26;;;;;;;20.23;10.02;;;0.60;99.90;;;;;;5122428;27;20077;-89
2023/01/22 00:37:52;;;;;;;21.23;9.55;;;0.60;99.90;;;;;;5121888;27;20046;-89
2023/01/22 00:40:18;;;;;;;21.27;9.35;;;0.60;99.90;;;;;;5112665;27;20035;-89
2023/01/22 00:42:43;;;;;;;18.83;9.60;;;0.60;99.90;;;;;;5113825;27;20215;-89
2023/01/22 00:45:13;;;;;;;18.85;9.88;;;0.60;99.90;;;;;;5110013;27;20039;-90
2023/01/22 00:47:39;;;;;;;20.48;8.88;;;0.60;99.90;;;;;;5115879;27;20396;-89
2023/01/22 00:50:05;;;;;;;18.42;9.32;;;0.60;99.90;;;;;;5126201;27;20043;-89
2023/01/22 00:52:31;;;;;;;20.48;9.40;;;0.60;99.90;;;;;;5132005;27;20122;-89
2023/01/22 00:54:56;;;;;;;17.83;9.40;;;0.60;99.90;;;;;;5124650;27;20638;-89
2023/01/22 00:57:22;;;;;;;17.05;8.20;;;0.50;99.90;;;;;;5132630;27;20039;-89
2023/01/22 00:59:48;;;;;;;22.08;9.63;;;0.50;99.90;;;;;;5132556;27;20121;-89
2023/01/22 01:02:14;;;;;;;19.77;8.48;;;0.50;99.90;;;;;;5125881;27;20031;-89
2023/01/22 01:04:40;;;;;;;17.98;7.93;;;0.50;99.90;;;;;;5115415;27;20040;-89
2023/01/22 01:07:06;;;;;;;16.23;9.02;;;0.40;99.90;;;;;;5108694;27;20042;-89
2023/01/22 01:09:38;;;;;;;16.60;9.13;;;0.40;99.90;;;;;;5132728;27;20392;-90
2023/01/22 01:12:04;;;;;;;18.23;9.65;;;0.30;99.90;;;;;;5110093;27;20479;-89
2023/01/22 01:14:29;;;;;;;17.35;9.07;;;0.30;99.90;;;;;;5093470;28;20032;-90
2023/01/22 01:16:55;;;;;;;20.60;9.95;;;0.30;99.90;;;;;;5093709;27;20134;-90
2023/01/22 01:19:21;;;;;;;20.15;9.40;;;0.30;99.90;;;;;;5112914;27;20039;-89
2023/01/22 01:21:46;;;;;;;18.67;8.73;;;0.20;99.90;;;;;;5132260;27;20074;-89
2023/01/22 01:24:12;;;;;;;18.52;9.75;;;0.20;99.90;;;;;;5118755;27;20504;-89
2023/01/22 01:26:40;;;;;;;19.40;9.70;;;0.20;99.90;;;;;;5129071;27;20051;-89
2023/01/22 01:29:09;;;;;;;16.77;8.38;;;0.20;99.90;;;;;;5117584;27;20053;-89
2023/01/22 01:31:36;;;;;;;19.85;9.45;;;0.10;99.90;;;;;;5131942;27;20031;-90
2023/01/22 01:34:02;;;;;;;15.75;8.52;;;0.10;99.90;;;;;;5112401;27;20039;-89
2023/01/22 01:36:28;;;;;;;17.88;9.98;;;0.10;99.90;;;;;;5129151;27;20464;-89
2023/01/22 01:38:54;;;;;;;17.35;8.73;;;0.10;99.90;;;;;;5114961;27;20119;-89
2023/01/22 01:41:22;;;;;;;15.27;8.32;;;0.00;99.90;;;;;;5108162;27;20062;-89
2023/01/22 01:44:11;;;;;;;21.63;7.72;;;0.00;99.90;;;;;;5113702;27;20031;-89
2023/01/22 01:46:54;;;;;;;18.35;9.00;;;0.00;99.90;;;;;;5110073;27;20035;-89
2023/01/22 01:49:31;;;;;;;16.60;9.05;;;-0.10;99.90;;;;;;5113887;27;20031;-89
2023/01/22 01:52:01;;;;;;;16.50;8.23;;;-0.10;99.90;;;;;;5130168;27;20035;-89
2023/01/22 01:54:28;;;;;;;17.48;9.32;;;-0.10;99.90;;;;;;5126376;27;20074;-89
2023/01/22 01:57:00;;;;;;;19.98;10.27;;;-0.10;99.90;;;;;;5131338;27;20078;-89
2023/01/22 01:59:26;;;;;;;19.15;9.38;;;-0.10;99.90;;;;;;5107947;27;20520;-89
2023/01/22 02:01:54;;;;;;;18.35;9.00;;;-0.10;99.90;;;;;;5114188;27;20092;-89
2023/01/22 02:04:20;;;;;;;17.38;9.13;;;-0.10;99.90;;;;;;5113457;27;20126;-89
2023/01/22 02:06:46;;;;;;;18.20;9.73;;;0.00;99.90;;;;;;5097563;28;20055;-89
2023/01/22 02:09:13;;;;;;;20.70;9.95;;;0.00;99.90;;;;;;5093115;28;20051;-89
2023/01/22 02:11:39;;;;;;;17.48;9.73;;;0.10;99.90;;;;;;5095938;27;20493;-89
2023/01/22 02:14:13;;;;;;;18.65;8.88;;;0.10;99.90;;;;;;5127124;27;20042;-90
2023/01/22 02:16:38;;;;;;;18.95;7.93;;;0.20;99.90;;;;;;5114087;27;20061;-89
2023/01/22 02:19:04;;;;;;;24.10;9.63;;;0.20;99.90;;;;;;5129783;27;20039;-89
2023/01/22 02:21:32;;;;;;;19.25;8.80;;;0.30;99.90;;;;;;5126337;27;20377;-89
2023/01/22 02:23:58;;;;;;;18.98;8.63;;;0.30;99.90;;;;;;5126212;27;20047;-89
2023/01/22 02:26:24;;;;;;;17.88;9.27;;;0.30;99.90;;;;;;5122367;27;20039;-89
2023/01/22 02:28:50;;;;;;;16.90;8.05;;;0.40;99.90;;;;;;5113987;28;20039;-89
2023/01/22 02:31:15;;;;;;;15.93;7.75;;;0.40;99.90;;;;;;5128367;27;20121;-90
2023/01/22 02:33:41;;;;;;;14.20;7.28;;;0.50;99.90;;;;;;5125351;27;20039;-90
2023/01/22 02:36:07;;;;;;;15.15;7.57;;;0.50;99.90;;;;;;5113375;28;20508;-89
2023/01/22 02:38:32;;;;;;;17.77;8.85;;;0.60;99.90;;;;;;5127020;28;20061;-89
2023/01/22 02:40:59;;;;;;;13.48;7.13;;;0.60;99.90;;;;;;5129967;28;20042;-89
2023/01/22 02:43:24;;;;;;;13.68;6.88;;;0.70;99.90;;;;;;5113376;28;20121;-89
2023/01/22 02:45:51;;;;;;;16.00;7.65;;;0.70;99.90;;;;;;5128826;28;20118;-89
2023/01/22 02:48:17;;;;;;;13.52;6.97;;;0.70;99.90;;;;;;5131093;28;20074;-89
2023/01/22 02:50:43;;;;;;;12.35;6.88;;;0.80;99.90;;;;;;5113776;28;20547;-89
2023/01/22 02:53:09;;;;;;;15.57;8.60;;;0.80;99.90;;;;;;5104953;28;20035;-89
2023/01/22 02:55:37;;;;;;;13.63;6.75;;;0.90;99.90;;;;;;5130313;28;20039;-89
2023/01/22 02:58:03;;;;;;;12.57;6.47;;;0.90;99.90;;;;;;5107772;28;20122;-89
2023/01/22 03:00:28;;;;;;;11.40;5.82;;;1.00;99.90;;;;;;5112586;28;20118;-89
2023/01/22 03:02:54;;;;;;;12.65;6.95;;;1.00;99.90;;;;;;5129426;28;20168;-89
2023/01/22 03:05:20;;;;;;;12.02;6.35;;;1.00;99.90;;;;;;5109070;28;20558;-89
2023/01/22 03:07:45;;;;;;;12.45;5.90;;;1.10;99.90;;;;;;5113614;28;20031;-89
2023/01/22 03:10:14;;;;;;;11.32;5.15;;;1.10;99.90;;;;;;5113622;28;20039;-89
2023/01/22 03:23:37;;;;;;;10.63;5.10;;;1.20;99.90;;;;;;5132522;27;20055;-89
2023/01/22 03:26:03;;;;;;;11.95;5.82;;;1.20;99.90;;;;;;5112699;27;20035;-88
2023/01/22 03:28:29;;;;;;;14.55;5.38;;;1.30;99.90;;;;;;5133736;27;20122;-88
2023/01/22 03:30:54;;;;;;;12.10;5.15;;;1.30;99.90;;;;;;5128690;27;20157;-88
2023/01/22 03:33:20;;;;;;;11.18;5.70;;;1.30;99.90;;;;;;5112156;27;20047;-88
2023/01/22 03:35:46;;;;;;;10.93;4.53;;;1.30;99.90;;;;;;5116299;27;20419;-88
2023/01/22 03:38:11;;;;;;;11.35;5.05;;;1.30;99.90;;;;;;5133494;27;20045;-88
2023/01/22 03:40:37;;;;;;;11.45;5.35;;;1.30;99.90;;;;;;5117209;27;20476;-88
2023/01/22 03:43:02;;;;;;;10.68;5.85;;;1.30;99.90;;;;;;5099670;28;20097;-89
2023/01/22 03:45:28;;;;;;;11.65;4.93;;;1.30;99.90;;;;;;5131193;27;20062;-89
2023/01/22 03:47:53;;;;;;;12.00;5.50;;;1.30;99.90;;;;;;5116921;27;20074;-88
2023/01/22 03:50:19;;;;;;;10.95;5.43;;;1.40;99.90;;;;;;5115374;27;20407;-89
2023/01/22 03:52:45;;;;;;;11.68;4.70;;;1.40;99.90;;;;;;5133566;27;20039;-88
2023/01/22 03:55:10;;;;;;;11.27;5.05;;;1.40;99.90;;;;;;5133383;27;20100;-88
2023/01/22 03:57:36;;;;;;;10.98;5.22;;;1.40;99.90;;;;;;5112736;27;20045;-88
2023/01/22 04:00:06;;;;;;;10.65;5.30;;;1.40;99.90;;;;;;5132960;27;20028;-88
2023/01/22 04:02:32;;;;;;;10.65;5.03;;;1.40;99.90;;;;;;5107983;27;20385;-88
2023/01/22 04:04:58;;;;;;;11.02;4.97;;;1.40;99.90;;;;;;5133021;27;20130;-88
2023/01/22 04:07:24;;;;;;;9.45;4.65;;;1.40;99.90;;;;;;5115710;27;20465;-88
2023/01/22 04:09:50;;;;;;;13.73;5.45;;;1.40;99.90;;;;;;5131768;27;20807;-88
2023/01/22 04:12:15;;;;;;;10.90;4.90;;;1.40;99.90;;;;;;5116164;27;20035;-88
2023/01/22 04:14:41;;;;;;;11.70;5.07;;;1.40;99.90;;;;;;5109180;27;20039;-88
2023/01/22 04:17:07;;;;;;;9.63;4.88;;;1.50;99.90;;;;;;5133466;27;20047;-88
2023/01/22 04:19:32;;;;;;;12.15;4.75;;;1.50;99.90;;;;;;5127703;27;20038;-88
2023/01/22 04:21:58;;;;;;;13.52;5.82;;;1.50;99.90;;;;;;5115940;27;20046;-88
2023/01/22 04:24:23;;;;;;;15.43;5.55;;;1.50;99.90;;;;;;5108869;27;20028;-88
2023/01/22 04:26:49;;;;;;;12.27;5.93;;;1.50;99.90;;;;;;5116126;27;20112;-88
2023/01/22 04:29:14;;;;;;;10.90;5.22;;;1.50;99.90;;;;;;5114049;27;20042;-89
2023/01/22 04:31:40;;;;;;;12.27;5.25;;;1.50;99.90;;;;;;5111448;27;20122;-89
2023/01/22 04:34:06;;;;;;;12.35;5.38;;;1.50;99.90;;;;;;5132069;27;20194;-89
2023/01/22 04:36:31;;;;;;;9.52;5.25;;;1.50;99.90;;;;;;5109864;27;20400;-89
2023/01/22 04:38:57;;;;;;;11.73;5.97;;;1.50;99.90;;;;;;5132979;27;20501;-88
2023/01/22 04:41:22;;;;;;;14.10;6.25;;;1.50;99.90;;;;;;5115218;27;20042;-89
2023/01/22 04:43:48;;;;;;;10.70;5.15;;;1.50;99.90;;;;;;5126971;27;20038;-89
2023/01/22 04:46:14;;;;;;;9.45;5.25;;;1.50;99.90;;;;;;5115918;27;20039;-89
2023/01/22 04:48:39;;;;;;;9.95;5.50;;;1.50;99.90;;;;;;5125407;27;20123;-89
2023/01/22 04:51:05;;;;;;;13.10;4.80;;;1.50;99.90;;;;;;5115986;27;20131;-89
2023/01/22 04:53:30;;;;;;;10.50;5.00;;;1.50;99.90;;;;;;5131472;27;20084;-89
2023/01/22 04:55:56;;;;;;;11.63;5.28;;;1.50;99.90;;;;;;5110075;27;20609;-88
2023/01/22 04:58:21;;;;;;;10.02;5.57;;;1.50;99.90;;;;;;5115037;27;20047;-89
2023/01/22 05:00:47;;;;;;;10.93;5.13;;;1.50;99.90;;;;;;5113529;27;20122;-89
2023/01/22 05:03:13;;;;;;;9.18;4.55;;;1.60;99.90;;;;;;5127683;27;20035;-89
2023/01/22 05:05:38;;;;;;;10.88;4.90;;;1.50;99.90;;;;;;5114144;27;20043;-89
2023/01/22 05:08:04;;;;;;;10.27;5.68;;;1.60;99.90;;;;;;5124686;27;20049;-88
2023/01/22 05:10:30;;;;;;;11.52;5.47;;;1.50;99.90;;;;;;5115483;27;20047;-89
2023/01/22 05:12:56;;;;;;;10.23;5.57;;;1.50;99.90;;;;;;5111263;27;20027;-88
2023/01/22 05:15:22;;;;;;;12.50;5.45;;;1.50;99.90;;;;;;5132344;27;20046;-88
2023/01/22 05:17:47;;;;;;;8.70;5.20;;;1.50;99.90;;;;;;5115097;27;20112;-89
2023/01/22 05:20:13;;;;;;;9.18;4.80;;;1.50;99.90;;;;;;5111693;27;20035;-88
2023/01/22 05:22:38;;;;;;;10.43;5.38;;;1.50;99.90;;;;;;5131596;27;20027;-88
2023/01/22 05:25:05;;;;;;;9.00;4.40;;;1.50;99.90;;;;;;5108919;27;20038;-88
2023/01/22 05:27:30;;;;;;;8.77;4.75;;;1.50;99.90;;;;;;5131248;27;20046;-89
2023/01/22 05:29:56;;;;;;;14.77;5.82;;;1.50;99.90;;;;;;5113792;27;20134;-89
2023/01/22 05:32:22;;;;;;;8.65;5.03;;;1.50;99.90;;;;;;5104683;27;20110;-89
2023/01/22 05:34:47;;;;;;;10.00;5.20;;;1.50;99.90;;;;;;5114990;27;20496;-89
2023/01/22 05:37:13;;;;;;;11.77;5.30;;;1.50;99.90;;;;;;5111892;27;20046;-89
2023/01/22 05:39:38;;;;;;;9.38;5.03;;;1.50;99.90;;;;;;5113433;27;20404;-89
2023/01/22 05:42:04;;;;;;;9.00;4.93;;;1.50;99.90;;;;;;5114298;27;20043;-89
2023/01/22 05:44:30;;;;;;;9.38;5.45;;;1.50;99.90;;;;;;5112856;27;20027;-88
2023/01/22 05:46:55;;;;;;;10.05;4.72;;;1.60;99.90;;;;;;5132067;27;20081;-88
2023/01/22 05:49:21;;;;;;;10.52;5.95;;;1.60;99.90;;;;;;5131969;27;20492;-88
2023/01/22 05:51:46;;;;;;;10.05;5.20;;;1.60;99.90;;;;;;5124819;27;20088;-89
2023/01/22 05:54:12;;;;;;;10.98;5.10;;;1.60;99.90;;;;;;5114289;27;20063;-88
2023/01/22 05:56:37;;;;;;;9.45;5.28;;;1.60;99.90;;;;;;5125904;27;20032;-88
2023/01/22 05:59:03;;;;;;;9.98;5.32;;;1.60;99.90;;;;;;5129599;27;20062;-88
2023/01/22 06:01:29;;;;;;;11.95;5.72;;;1.60;99.90;;;;;;5129713;27;20481;-88
2023/01/22 06:03:54;;;;;;;10.90;5.70;;;1.60;99.90;;;;;;5110707;27;20039;-88
2023/01/22 06:06:20;;;;;;;10.85;5.22;;;1.60;99.90;;;;;;5113549;27;20555;-89
2023/01/22 06:08:47;;;;;;;10.40;5.10;;;1.70;99.90;;;;;;5112370;27;20035;-89
2023/01/22 06:11:15;;;;;;;10.90;5.35;;;1.60;99.90;;;;;;5114448;27;20038;-88
2023/01/22 06:13:41;;;;;;;9.68;5.03;;;1.60;99.90;;;;;;5108269;28;20446;-88
2023/01/22 06:16:08;;;;;;;9.43;5.28;;;1.60;99.90;;;;;;5131283;27;20515;-89
2023/01/22 06:18:34;;;;;;;8.57;5.10;;;1.60;99.90;;;;;;5131498;27;20047;-89
2023/01/22 06:21:01;;;;;;;8.85;5.05;;;1.60;99.90;;;;;;5121386;27;20039;-89
2023/01/22 06:23:28;;;;;;;9.07;5.43;;;1.60;99.90;;;;;;5130572;27;20043;-89
2023/01/22 06:25:55;;;;;;;9.95;6.07;;;1.70;99.90;;;;;;5114148;27;20038;-89
2023/01/22 06:28:21;;;;;;;10.90;5.55;;;1.70;99.90;;;;;;5111484;28;20493;-89
2023/01/22 06:30:47;;;;;;;10.07;5.22;;;1.70;99.90;;;;;;5114093;28;20054;-89
2023/01/22 06:33:13;;;;;;;9.48;6.07;;;1.70;99.90;;;;;;5131039;27;20035;-89
2023/01/22 06:35:39;;;;;;;10.88;5.78;;;1.70;99.90;;;;;;5105197;28;20083;-89
2023/01/22 06:38:04;;;;;;;11.77;5.78;;;1.70;99.90;;;;;;5111407;28;20393;-89
2023/01/22 06:40:30;;;;;;;9.55;5.70;;;1.70;99.90;;;;;;5108179;28;20065;-89
2023/01/22 06:42:56;;;;;;;10.15;5.47;;;1.70;99.90;;;;;;5128747;28;20040;-89
2023/01/22 06:45:22;;;;;;;8.80;5.20;;;1.70;99.90;;;;;;5111447;28;20046;-89
2023/01/22 06:47:48;;;;;;;8.48;4.88;;;1.70;99.90;;;;;;5129464;28;20039;-88
2023/01/22 06:50:14;;;;;;;8.38;4.90;;;1.70;99.90;;;;;;5113073;27;20034;-89
2023/01/22 06:52:40;;;;;;;10.25;4.80;;;1.70;99.90;;;;;;5110663;27;20133;-89
2023/01/22 06:55:06;;;;;;;8.60;4.45;;;1.70;99.90;;;;;;5134594;27;20035;-89
2023/01/22 06:57:31;;;;;;;9.35;4.53;;;1.70;99.90;;;;;;5110857;27;20111;-89
2023/01/22 06:59:57;;;;;;;9.57;4.90;;;1.70;99.90;;;;;;5117345;27;20384;-89
2023/01/22 07:02:22;;;;;;;9.40;5.00;;;1.60;99.90;;;;;;5132736;27;20027;-88
2023/01/22 07:04:48;;;;;;;11.05;4.60;;;1.70;99.90;;;;;;5112945;28;20424;-89
2023/01/22 07:07:14;;;;;;;10.80;5.05;;;1.60;99.90;;;;;;5113639;28;20092;-89
2023/01/22 07:09:39;;;;;;;9.98;4.93;;;1.60;99.90;;;;;;5101417;27;20503;-89
2023/01/22 07:12:05;;;;;;;8.45;4.75;;;1.60;99.90;;;;;;5116058;27;20039;-89
2023/01/22 07:14:31;;;;;;;7.97;4.30;;;1.60;99.90;;;;;;5106615;28;20382;-89
2023/01/22 07:16:56;;;;;;;9.55;4.93;;;1.60;99.90;;;;;;5107358;27;20039;-89
2023/01/22 07:19:23;;;;;;;11.70;5.68;;;1.60;99.90;;;;;;5117060;27;20621;-89
2023/01/22 07:21:48;;;;;;;10.32;4.97;;;1.60;99.90;;;;;;5112978;28;20035;-89
2023/01/22 07:24:16;;;;;;;11.13;4.43;;;1.60;99.90;;;;;;5112454;27;20126;-89
2023/01/22 07:26:42;;;;;;;9.25;4.70;;;1.50;99.90;;;;;;5133580;27;20043;-89
2023/01/22 07:29:08;;;;;;;9.95;4.57;;;1.50;99.90;;;;;;5109463;27;20057;-89
2023/01/22 07:31:34;;;;;;;9.40;4.53;;;1.60;99.90;;;;;;5133656;27;20104;-89
2023/01/22 07:34:01;;;;;;;8.77;4.45;;;1.60;99.90;;;;;;5132919;27;20488;-89
2023/01/22 07:36:27;;;;;;;9.95;4.60;;;1.60;99.90;;;;;;5131963;27;20221;-88
2023/01/22 07:38:52;;;;;;;8.25;4.57;;;1.60;99.90;;;;;;5116350;27;20169;-89
2023/01/22 07:41:18;;;;;;;9.88;4.80;;;1.60;99.90;;;;;;5126279;27;20057;-88
2023/01/22 07:43:43;;;;;;;11.25;4.70;;;1.60;99.90;;;;;;5115096;27;20039;-89
2023/01/22 07:46:09;;;;;;;8.82;5.00;;;1.60;99.90;;;;;;5109355;28;20043;-88
2023/01/22 07:48:34;;;;;;;9.45;5.03;;;1.60;99.90;;;;;;5114578;27;20046;-88
2023/01/22 07:51:03;;;;;;;13.35;5.45;;;1.70;99.90;;;;;;5116009;27;20109;-88
2023/01/22 07:53:29;;;;;;;10.73;4.78;;;1.60;99.90;;;;;;5112361;27;20121;-88
2023/01/22 07:55:54;;;;;;;9.57;5.28;;;1.70;99.90;;;;;;5116108;27;20479;-88
2023/01/22 07:58:20;;;;;;;9.93;5.00;;;1.60;99.90;;;;;;5109638;28;20035;-89
2023/01/22 08:00:47;;;;;;;9.82;5.20;;;1.60;99.90;;;;;;5116134;27;20430;-88
2023/01/22 08:03:14;;;;;;;8.88;4.95;;;1.70;99.90;;;;;;5115727;27;20031;-88
2023/01/22 08:05:41;;;;;;;8.73;4.45;;;1.70;99.90;;;;;;5112781;27;20035;-88
2023/01/22 08:08:13;;;;;;;9.82;4.75;;;1.70;99.90;;;;;;5115612;27;20086;-88
2023/01/22 08:10:39;;;;;;;11.85;4.72;;;1.70;99.90;;;;;;5115167;27;20039;-88
2023/01/22 08:13:05;;;;;;;10.32;5.05;;;1.70;99.90;;;;;;5116837;27;20039;-88
2023/01/22 08:15:31;;;;;;;9.70;4.72;;;1.70;99.90;;;;;;5114903;27;20069;-88
2023/01/22 08:17:57;;;;;;;11.43;5.03;;;1.70;99.90;;;;;;5130380;27;20042;-88
2023/01/22 08:20:24;;;;;;;11.02;5.45;;;1.70;99.90;;;;;;5115087;27;20081;-88
2023/01/22 08:22:49;;;;;;;10.55;4.95;;;1.80;99.90;;;;;;5127170;27;20063;-88
2023/01/22 08:25:15;;;;;;;9.63;5.18;;;1.80;99.90;;;;;;5115356;27;20116;-88
2023/01/22 08:27:41;;;;;;;8.77;4.70;;;1.80;99.90;;;;;;5115120;27;20771;-88
2023/01/22 08:30:10;;;;;;;10.25;5.82;;;1.80;99.90;;;;;;5127152;27;20539;-88
2023/01/22 08:32:37;;;;;;;10.60;5.35;;;1.80;99.90;;;;;;5115371;27;20054;-89
2023/01/22 08:35:03;;;;;;;9.73;5.50;;;1.80;99.90;;;;;;5113610;27;20462;-88
2023/01/22 08:37:28;;;;;;;11.35;5.10;;;1.90;99.90;;;;;;5132424;27;20035;-88
2023/01/22 08:39:55;;;;;;;8.90;5.00;;;1.90;99.90;;;;;;5113364;27;20428;-89
2023/01/22 08:42:20;;;;;;;9.18;5.25;;;1.90;99.90;;;;;;5111156;27;20805;-89
2023/01/22 08:44:46;;;;;;;12.35;5.60;;;1.90;99.90;;;;;;5131906;27;20130;-88
2023/01/22 08:47:11;;;;;;;11.25;5.43;;;1.90;99.90;;;;;;5129474;27;20415;-89
2023/01/22 08:49:37;;;;;;;10.00;5.47;;;1.90;99.90;;;;;;5114859;27;20099;-88
2023/01/22 08:52:03;;;;;;;11.30;5.88;;;1.90;99.90;;;;;;5113261;27;20050;-88
2023/01/22 08:54:28;;;;;;;11.30;6.35;;;2.00;99.90;;;;;;5119577;27;20031;-89
2023/01/22 08:56:54;;;;;;;9.55;5.25;;;2.00;99.90;;;;;;5115234;27;20606;-89
2023/01/22 08:59:20;;;;;;;9.27;5.63;;;2.00;99.90;;;;;;5110462;27;20031;-89
2023/01/22 09:01:45;;;;;;;11.77;5.93;;;2.00;99.90;;;;;;5111454;28;20042;-89
2023/01/22 09:04:11;;;;;;;12.57;6.20;;;2.00;99.90;;;;;;5111194;28;20043;-89
2023/01/22 09:06:37;;;;;;;10.55;6.22;;;2.00;99.90;;;;;;5122479;27;20051;-89
2023/01/22 09:09:05;;;;;;;11.10;5.75;;;2.10;99.90;;;;;;5115013;27;20041;-89
2023/01/22 09:11:31;;;;;;;11.35;5.78;;;2.10;99.90;;;;;;5121500;27;20043;-89
2023/01/22 09:13:57;;;;;;;9.57;5.72;;;2.10;99.90;;;;;;5113344;27;20126;-90
2023/01/22 09:16:24;;;;;;;9.55;5.57;;;2.10;99.90;;;;;;5127753;27;20043;-90
2023/01/22 09:18:50;;;;;;;10.20;4.90;;;2.10;99.90;;;;;;5110872;27;20118;-89
2023/01/22 09:21:16;;;;;;;9.63;5.55;;;2.10;99.90;;;;;;5114109;27;20121;-89
2023/01/22 09:23:41;;;;;;;10.90;5.43;;;2.10;99.90;;;;;;5124294;27;20031;-89
2023/01/22 09:26:07;;;;;;;10.75;5.15;;;2.20;99.90;;;;;;5130920;27;20043;-88
2023/01/22 09:28:33;;;;;;;11.88;5.43;;;2.10;99.90;;;;;;5131958;27;20487;-89
2023/01/22 09:30:58;;;;;;;10.60;6.40;;;2.20;99.90;;;;;;5108974;27;20054;-89
2023/01/22 09:33:24;;;;;;;9.77;5.13;;;2.20;99.90;;;;;;5110815;28;20039;-89
2023/01/22 09:35:50;;;;;;;10.13;6.20;;;2.20;99.90;;;;;;5094144;28;20518;-89
2023/01/22 09:38:17;;;;;;;9.05;5.43;;;2.20;99.90;;;;;;5094165;28;20069;-89
2023/01/22 09:40:53;;;;;;;9.85;5.45;;;2.20;99.90;;;;;;5111028;28;20481;-89
2023/01/22 09:43:33;;;;;;;10.15;5.50;;;2.30;99.90;;;;;;5092523;28;20457;-89
2023/01/22 09:46:07;;;;;;;10.75;5.35;;;2.30;99.90;;;;;;5092895;28;20038;-89
2023/01/22 09:48:41;;;;;;;10.60;5.45;;;2.30;99.90;;;;;;5093606;28;20164;-89
2023/01/22 09:51:13;;;;;;;12.25;6.15;;;2.30;99.90;;;;;;5092758;28;20031;-89
2023/01/22 09:53:44;;;;;;;10.88;5.32;;;2.40;99.90;;;;;;5094415;27;20031;-89
2023/01/22 09:56:20;;;;;;;9.50;5.43;;;2.40;99.90;;;;;;5095063;28;20142;-88
2023/01/22 09:58:51;;;;;;;10.55;5.45;;;2.40;99.90;;;;;;5092702;28;20036;-88
2023/01/22 10:01:18;;;;;;;9.93;5.85;;;2.40;99.90;;;;;;5111185;27;20123;-89
2023/01/22 10:03:55;;;;;;;11.80;5.40;;;2.40;99.90;;;;;;5110462;27;20133;-88
2023/01/22 10:06:22;;;;;;;10.10;5.63;;;2.50;99.90;;;;;;5091982;28;20078;-89
2023/01/22 10:09:08;;;;;;;11.98;5.20;;;2.40;99.90;;;;;;5095577;28;20036;-89
2023/01/22 10:11:34;;;;;;;9.45;5.30;;;2.50;99.90;;;;;;5108376;28;20085;-89
2023/01/22 10:14:01;;;;;;;10.73;5.45;;;2.50;99.90;;;;;;5111474;27;20035;-89
2023/01/22 10:16:27;;;;;;;12.65;6.15;;;2.50;99.90;;;;;;5128585;27;20041;-89
2023/01/22 10:18:59;;;;;;;9.75;5.25;;;2.50;99.90;;;;;;5110312;27;20039;-89
2023/01/22 10:21:26;;;;;;;9.70;5.38;;;2.60;99.90;;;;;;5128455;27;20035;-90
2023/01/22 10:23:54;;;;;;;10.75;5.70;;;2.60;99.90;;;;;;5113161;27;20035;-89
2023/01/22 10:26:44;;;;;;;13.05;5.72;;;2.60;99.90;;;;;;5125933;27;20063;-89
2023/01/22 10:29:33;;;;;;;13.15;6.00;;;2.60;99.90;;;;;;5104898;28;20071;-89
2023/01/22 10:32:31;;;;;;;11.73;6.47;;;2.60;99.90;;;;;;5091352;28;20075;-89
2023/01/22 10:35:18;;;;;;;10.70;5.88;;;2.60;99.90;;;;;;5044885;28;20120;-89
2023/01/22 10:37:49;;;;;;;11.27;6.22;;;2.60;99.90;;;;;;5044938;28;20049;-89
2023/01/22 10:40:32;;;;;;;12.10;5.95;;;2.70;99.90;;;;;;5044634;28;20122;-89
2023/01/22 10:43:13;;;;;;;10.90;6.05;;;2.70;99.90;;;;;;5014721;28;20449;-89
2023/01/22 10:45:53;;;;;;;14.93;6.03;;;2.70;99.90;;;;;;5023041;28;20044;-89
2023/01/22 10:48:19;;;;;;;11.40;6.05;;;2.70;99.90;;;;;;5068131;28;20179;-89
2023/01/22 10:50:45;;;;;;;13.15;6.35;;;2.70;99.90;;;;;;5027393;28;20488;-89
2023/01/22 10:53:23;;;;;;;14.85;6.50;;;2.70;99.90;;;;;;5051021;28;20074;-89
2023/01/22 10:55:58;;;;;;;11.70;5.72;;;2.80;99.90;;;;;;5034679;28;20040;-89
2023/01/22 10:58:26;;;;;;;11.40;5.97;;;2.80;99.90;;;;;;5030711;28;20127;-89
2023/01/22 11:01:02;;;;;;;11.07;5.72;;;2.80;99.90;;;;;;5067588;28;20041;-89
2023/01/22 11:03:34;;;;;;;13.32;5.68;;;2.80;99.90;;;;;;5032173;28;20049;-90
2023/01/22 11:06:17;;;;;;;9.75;5.47;;;2.80;99.90;;;;;;5035149;28;20048;-89
2023/01/22 11:09:13;;;;;;;11.68;5.85;;;2.80;99.90;;;;;;5035034;28;20048;-89
2023/01/22 11:11:46;;;;;;;13.43;5.95;;;2.90;99.90;;;;;;5126081;28;20108;-90
2023/01/22 11:14:21;;;;;;;;;;;2.90;99.90;;;;;;5111428;28;20106;-90
2023/01/22 11:16:50;;;;;;;11.32;6.25;;;2.80;99.90;;;;;;5113270;28;19926;-89
2023/01/22 11:19:20;;;;;;;11.73;6.50;;;2.90;99.90;;;;;;5112554;28;20036;-89
2023/01/22 11:21:51;;;;;;;10.98;5.95;;;2.80;99.90;;;;;;5113341;28;20107;-89
2023/01/22 11:24:23;;;;;;;16.65;5.70;;;2.80;99.90;;;;;;5112875;28;20047;-89
2023/01/22 11:27:13;;;;;;;10.90;6.03;;;2.80;99.90;;;;;;5130304;28;20042;-90
2023/01/22 11:30:17;;;;;;;11.02;5.97;;;2.80;99.90;;;;;;5129931;28;20039;-89
2023/01/22 11:33:00;;;;;;;11.43;6.57;;;2.80;99.90;;;;;;5112954;28;20039;-89
2023/01/22 11:35:58;;;;;;;11.80;6.88;;;2.90;99.90;;;;;;5130542;28;20492;-89
2023/01/22 11:38:45;;;;;;;10.55;5.78;;;2.90;99.90;;;;;;5017185;28;20056;-90
2023/01/22 11:41:43;;;;;;;11.90;6.53;;;2.90;99.90;;;;;;5034839;28;20056;-90
2023/01/22 11:44:39;;;;;;;11.50;5.97;;;2.90;99.90;;;;;;5033889;28;20041;-90
2023/01/22 11:47:44;;;;;;;10.75;6.20;;;3.00;99.90;;;;;;5035031;28;20076;-89
2023/01/22 11:50:45;;;;;;;12.23;6.80;;;3.00;99.90;;;;;;5035604;28;20036;-89
2023/01/22 11:53:48;;;;;;;11.75;6.32;;;3.00;99.90;;;;;;5007857;28;20099;-89
2023/01/22 11:56:41;;;;;;;10.48;6.28;;;3.00;99.90;;;;;;4998496;28;20045;-90
2023/01/22 11:59:17;;;;;;;11.80;6.15;;;3.00;99.90;;;;;;5031399;28;20520;-89
2023/01/22 12:01:42;;;;;;;11.88;6.40;;;3.10;99.90;;;;;;4997835;28;20053;-90
2023/01/22 12:04:26;;;;;;;14.13;6.20;;;3.10;99.90;;;;;;5030826;28;20091;-90
2023/01/22 12:07:02;;;;;;;13.40;6.70;;;3.10;99.90;;;;;;5031370;28;20053;-90
2023/01/22 12:09:41;;;;;;;11.60;6.57;;;3.10;99.90;;;;;;5014325;28;20535;-90
2023/01/22 12:12:22;;;;;;;12.02;6.45;;;3.10;99.90;;;;;;5014310;28;20491;-90
2023/01/22 12:15:02;;;;;;;12.52;6.82;;;3.10;99.90;;;;;;5081003;28;20077;-89
2023/01/22 12:17:36;;;;;;;12.35;6.55;;;3.10;99.90;;;;;;5109172;28;20048;-89
2023/01/22 12:20:27;;;;;;;10.90;6.43;;;3.10;99.90;;;;;;5074864;28;20040;-89
2023/01/22 12:23:14;;;;;;;12.30;5.93;;;3.10;99.90;;;;;;5091802;28;20043;-90
2023/01/22 12:25:58;;;;;;;11.80;5.88;;;3.20;99.90;;;;;;5109336;28;20051;-90
2023/01/22 12:28:25;;;;;;;10.88;5.95;;;3.20;99.90;;;;;;5109221;28;20036;-90
2023/01/22 12:31:13;;;;;;;13.23;6.35;;;3.20;99.90;;;;;;5108788;28;20455;-90
2023/01/22 12:33:41;;;;;;;10.00;5.63;;;3.20;99.90;;;;;;5084245;28;20071;-89
2023/01/22 12:36:11;;;;;;;12.65;6.07;;;3.20;99.90;;;;;;5092906;28;20035;-89
2023/01/22 12:38:40;;;;;;;11.23;6.10;;;3.20;99.90;;;;;;5110885;28;20043;-90
2023/01/22 12:41:44;;;;;;;10.43;5.65;;;3.20;99.90;;;;;;5094824;28;20055;-89
2023/01/22 12:44:27;;;;;;;10.77;5.53;;;3.20;99.90;;;;;;5094593;28;20123;-90
2023/01/22 12:47:13;;;;;;;11.05;5.72;;;3.20;99.90;;;;;;5112043;28;20044;-90
2023/01/22 12:49:52;;;;;;;11.52;6.22;;;3.30;99.90;;;;;;5111139;28;20587;-90
2023/01/22 12:52:36;;;;;;;11.10;5.85;;;3.30;99.90;;;;;;5111774;28;20062;-90
2023/01/22 12:55:21;;;;;;;13.15;6.07;;;3.30;99.90;;;;;;5110791;28;20041;-89
2023/01/22 12:57:47;;;;;;;11.52;5.57;;;3.30;99.90;;;;;;5112429;28;20481;-90
2023/01/22 13:00:34;;;;;;;11.25;5.63;;;3.30;99.90;;;;;;5111908;28;20085;-90
2023/01/22 13:03:20;;;;;;;12.10;6.43;;;3.30;99.90;;;;;;5094541;28;20485;-89
2023/01/22 13:05:46;;;;;;;13.38;6.00;;;3.30;99.90;;;;;;5112408;28;20373;-90
2023/01/22 13:08:20;;;;;;;14.95;5.57;;;3.30;99.90;;;;;;5095020;28;20050;-90
2023/01/22 13:11:00;;;;;;;9.63;5.75;;;3.30;99.90;;;;;;5112001;28;20561;-90